sensor_id;sensor_type;location;lat;lon;timestamp;P1;durP1;ratioP1;P2;durP2;ratioP2
75548;SDS011;64133;56.002;37.208;2023-06-10T00:02:17;5.15;;;2.17;;
75548;SDS011;64133;56.002;37.208;2023-06-10T00:07:22;3.58;;;2.08;;
75548;SDS011;64133;56.002;37.208;2023-06-10T00:12:27;5.30;;;1.82;;
75548;SDS011;64133;56.002;37.208;2023-06-10T00:17:31;4.47;;;2.27;;
75548;SDS011;64133;56.002;37.208;2023-06-10T00:22:36;3.72;;;2.35;;
75548;SDS011;64133;56.002;37.208;2023-06-10T00:27:41;4.35;;;1.62;;
75548;SDS011;64133;56.002;37.208;2023-06-10T00:32:45;4.20;;;1.82;;
75548;SDS011;64133;56.002;37.208;2023-06-10T00:37:50;3.10;;;1.92;;
75548;SDS011;64133;56.002;37.208;2023-06-10T00:42:55;3.45;;;1.62;;
75548;SDS011;64133;56.002;37.208;2023-06-10T00:47:59;3.02;;;1.70;;
75548;SDS011;64133;56.002;37.208;2023-06-10T00:53:04;4.62;;;2.27;;
75548;SDS011;64133;56.002;37.208;2023-06-10T00:58:09;2.10;;;1.22;;
75548;SDS011;64133;56.002;37.208;2023-06-10T01:03:13;7.53;;;2.17;;
75548;SDS011;64133;56.002;37.208;2023-06-10T01:08:19;4.67;;;2.00;;
75548;SDS011;64133;56.002;37.208;2023-06-10T01:13:23;3.08;;;1.75;;
75548;SDS011;64133;56.002;37.208;2023-06-10T01:18:30;3.50;;;2.35;;
75548;SDS011;64133;56.002;37.208;2023-06-10T01:23:35;6.95;;;2.05;;
75548;SDS011;64133;56.002;37.208;2023-06-10T01:28:40;5.33;;;1.70;;
75548;SDS011;64133;56.002;37.208;2023-06-10T01:33:45;5.03;;;2.08;;
75548;SDS011;64133;56.002;37.208;2023-06-10T01:38:49;5.10;;;1.90;;
75548;SDS011;64133;56.002;37.208;2023-06-10T01:43:54;3.70;;;1.77;;
75548;SDS011;64133;56.002;37.208;2023-06-10T01:48:58;4.80;;;1.98;;
75548;SDS011;64133;56.002;37.208;2023-06-10T01:54:03;2.72;;;1.92;;
75548;SDS011;64133;56.002;37.208;2023-06-10T01:59:08;4.50;;;1.67;;
75548;SDS011;64133;56.002;37.208;2023-06-10T02:04:13;3.02;;;1.92;;
75548;SDS011;64133;56.002;37.208;2023-06-10T02:09:17;4.83;;;1.82;;
75548;SDS011;64133;56.002;37.208;2023-06-10T02:14:22;3.67;;;1.72;;
75548;SDS011;64133;56.002;37.208;2023-06-10T02:19:27;2.62;;;1.50;;
75548;SDS011;64133;56.002;37.208;2023-06-10T02:24:31;4.78;;;1.70;;
75548;SDS011;64133;56.002;37.208;2023-06-10T02:29:36;3.22;;;1.30;;
75548;SDS011;64133;56.002;37.208;2023-06-10T02:34:41;3.92;;;1.65;;
75548;SDS011;64133;56.002;37.208;2023-06-10T02:39:45;3.37;;;1.50;;
75548;SDS011;64133;56.002;37.208;2023-06-10T02:44:50;2.45;;;1.32;;
75548;SDS011;64133;56.002;37.208;2023-06-10T02:49:55;2.20;;;1.30;;
75548;SDS011;64133;56.002;37.208;2023-06-10T02:54:59;2.80;;;1.60;;
75548;SDS011;64133;56.002;37.208;2023-06-10T03:00:05;3.58;;;1.37;;
75548;SDS011;64133;56.002;37.208;2023-06-10T03:05:12;2.20;;;1.20;;
75548;SDS011;64133;56.002;37.208;2023-06-10T03:10:17;3.17;;;1.50;;
75548;SDS011;64133;56.002;37.208;2023-06-10T03:15:21;3.30;;;1.67;;
75548;SDS011;64133;56.002;37.208;2023-06-10T03:20:26;2.65;;;1.17;;
75548;SDS011;64133;56.002;37.208;2023-06-10T03:25:31;4.70;;;1.47;;
75548;SDS011;64133;56.002;37.208;2023-06-10T03:30:36;2.00;;;1.07;;
75548;SDS011;64133;56.002;37.208;2023-06-10T03:35:40;4.05;;;1.17;;
75548;SDS011;64133;56.002;37.208;2023-06-10T03:40:45;2.35;;;1.30;;
75548;SDS011;64133;56.002;37.208;2023-06-10T03:45:50;4.72;;;1.47;;
75548;SDS011;64133;56.002;37.208;2023-06-10T03:50:54;3.62;;;1.42;;
75548;SDS011;64133;56.002;37.208;2023-06-10T03:55:59;2.40;;;1.80;;
75548;SDS011;64133;56.002;37.208;2023-06-10T04:01:04;2.20;;;1.40;;
75548;SDS011;64133;56.002;37.208;2023-06-10T04:06:08;3.77;;;1.27;;
75548;SDS011;64133;56.002;37.208;2023-06-10T04:11:13;3.12;;;1.50;;
75548;SDS011;64133;56.002;37.208;2023-06-10T04:16:18;2.40;;;1.60;;
75548;SDS011;64133;56.002;37.208;2023-06-10T04:21:22;3.12;;;1.42;;
75548;SDS011;64133;56.002;37.208;2023-06-10T04:26:28;3.50;;;1.40;;
75548;SDS011;64133;56.002;37.208;2023-06-10T04:31:32;3.95;;;1.35;;
75548;SDS011;64133;56.002;37.208;2023-06-10T04:36:37;3.98;;;2.47;;
75548;SDS011;64133;56.002;37.208;2023-06-10T04:41:42;2.42;;;1.30;;
75548;SDS011;64133;56.002;37.208;2023-06-10T04:46:46;3.12;;;1.37;;
75548;SDS011;64133;56.002;37.208;2023-06-10T04:51:51;1.85;;;1.12;;
75548;SDS011;64133;56.002;37.208;2023-06-10T04:56:56;2.08;;;1.30;;
75548;SDS011;64133;56.002;37.208;2023-06-10T05:02:00;3.83;;;1.42;;
75548;SDS011;64133;56.002;37.208;2023-06-10T05:07:06;1.80;;;0.98;;
75548;SDS011;64133;56.002;37.208;2023-06-10T05:12:11;2.87;;;1.65;;
75548;SDS011;64133;56.002;37.208;2023-06-10T05:22:34;2.42;;;1.30;;
75548;SDS011;64133;56.002;37.208;2023-06-10T05:27:39;3.15;;;0.90;;
75548;SDS011;64133;56.002;37.208;2023-06-10T05:32:44;2.60;;;0.70;;
75548;SDS011;64133;56.002;37.208;2023-06-10T05:37:49;3.83;;;1.25;;
75548;SDS011;64133;56.002;37.208;2023-06-10T05:42:54;1.50;;;0.90;;
75548;SDS011;64133;56.002;37.208;2023-06-10T05:47:59;3.67;;;1.15;;
75548;SDS011;64133;56.002;37.208;2023-06-10T05:53:04;4.42;;;1.20;;
75548;SDS011;64133;56.002;37.208;2023-06-10T05:58:11;2.17;;;0.93;;
75548;SDS011;64133;56.002;37.208;2023-06-10T06:03:16;3.02;;;1.05;;
75548;SDS011;64133;56.002;37.208;2023-06-10T06:08:20;2.20;;;1.00;;
75548;SDS011;64133;56.002;37.208;2023-06-10T06:13:25;2.77;;;1.20;;
75548;SDS011;64133;56.002;37.208;2023-06-10T06:18:30;3.45;;;1.30;;
75548;SDS011;64133;56.002;37.208;2023-06-10T06:23:35;3.58;;;0.90;;
75548;SDS011;64133;56.002;37.208;2023-06-10T06:28:40;2.05;;;1.00;;
75548;SDS011;64133;56.002;37.208;2023-06-10T06:33:48;3.40;;;0.85;;
75548;SDS011;64133;56.002;37.208;2023-06-10T06:38:53;2.87;;;0.90;;
75548;SDS011;64133;56.002;37.208;2023-06-10T06:43:58;4.37;;;1.50;;
75548;SDS011;64133;56.002;37.208;2023-06-10T06:49:02;1.52;;;0.70;;
75548;SDS011;64133;56.002;37.208;2023-06-10T06:54:22;2.92;;;0.93;;
75548;SDS011;64133;56.002;37.208;2023-06-10T06:59:27;3.70;;;1.35;;
75548;SDS011;64133;56.002;37.208;2023-06-10T07:04:35;1.82;;;1.10;;
75548;SDS011;64133;56.002;37.208;2023-06-10T07:09:45;6.62;;;0.70;;
75548;SDS011;64133;56.002;37.208;2023-06-10T07:14:53;5.30;;;1.15;;
75548;SDS011;64133;56.002;37.208;2023-06-10T07:19:57;1.55;;;0.57;;
75548;SDS011;64133;56.002;37.208;2023-06-10T07:30:17;1.40;;;0.70;;
75548;SDS011;64133;56.002;37.208;2023-06-10T07:35:22;4.15;;;0.60;;
75548;SDS011;64133;56.002;37.208;2023-06-10T07:40:26;4.12;;;0.93;;
75548;SDS011;64133;56.002;37.208;2023-06-10T07:45:31;3.52;;;0.70;;
75548;SDS011;64133;56.002;37.208;2023-06-10T07:50:36;1.80;;;0.60;;
75548;SDS011;64133;56.002;37.208;2023-06-10T07:55:41;3.08;;;0.53;;
75548;SDS011;64133;56.002;37.208;2023-06-10T08:00:46;1.55;;;0.88;;
75548;SDS011;64133;56.002;37.208;2023-06-10T08:05:50;4.85;;;1.40;;
75548;SDS011;64133;56.002;37.208;2023-06-10T08:10:55;3.42;;;1.10;;
75548;SDS011;64133;56.002;37.208;2023-06-10T08:15:59;3.30;;;1.40;;
75548;SDS011;64133;56.002;37.208;2023-06-10T08:21:04;1.90;;;0.70;;
75548;SDS011;64133;56.002;37.208;2023-06-10T08:26:09;2.35;;;0.60;;
75548;SDS011;64133;56.002;37.208;2023-06-10T08:31:14;3.27;;;1.32;;
75548;SDS011;64133;56.002;37.208;2023-06-10T08:36:18;1.35;;;0.40;;
75548;SDS011;64133;56.002;37.208;2023-06-10T08:41:23;3.77;;;0.80;;
75548;SDS011;64133;56.002;37.208;2023-06-10T08:46:28;1.82;;;0.30;;
75548;SDS011;64133;56.002;37.208;2023-06-10T08:51:32;4.03;;;1.00;;
75548;SDS011;64133;56.002;37.208;2023-06-10T08:56:39;1.47;;;0.70;;
75548;SDS011;64133;56.002;37.208;2023-06-10T09:01:42;3.35;;;0.85;;
75548;SDS011;64133;56.002;37.208;2023-06-10T09:06:46;2.75;;;0.50;;
75548;SDS011;64133;56.002;37.208;2023-06-10T09:11:54;2.55;;;0.45;;
75548;SDS011;64133;56.002;37.208;2023-06-10T09:17:08;2.22;;;0.75;;
75548;SDS011;64133;56.002;37.208;2023-06-10T09:22:13;2.83;;;0.42;;
75548;SDS011;64133;56.002;37.208;2023-06-10T09:27:19;1.82;;;0.70;;
75548;SDS011;64133;56.002;37.208;2023-06-10T09:32:25;2.02;;;0.62;;
75548;SDS011;64133;56.002;37.208;2023-06-10T09:37:30;3.75;;;1.00;;
75548;SDS011;64133;56.002;37.208;2023-06-10T09:42:36;2.77;;;0.42;;
75548;SDS011;64133;56.002;37.208;2023-06-10T09:47:40;3.92;;;0.70;;
75548;SDS011;64133;56.002;37.208;2023-06-10T09:52:44;2.05;;;0.70;;
75548;SDS011;64133;56.002;37.208;2023-06-10T09:57:53;3.55;;;1.40;;
75548;SDS011;64133;56.002;37.208;2023-06-10T10:02:54;2.50;;;0.70;;
75548;SDS011;64133;56.002;37.208;2023-06-10T10:08:04;4.08;;;0.80;;
75548;SDS011;64133;56.002;37.208;2023-06-10T10:13:12;2.42;;;1.20;;
75548;SDS011;64133;56.002;37.208;2023-06-10T10:18:17;1.42;;;0.50;;
75548;SDS011;64133;56.002;37.208;2023-06-10T10:23:24;1.57;;;0.80;;
75548;SDS011;64133;56.002;37.208;2023-06-10T10:28:32;7.10;;;4.03;;
75548;SDS011;64133;56.002;37.208;2023-06-10T10:33:38;2.80;;;0.95;;
75548;SDS011;64133;56.002;37.208;2023-06-10T10:38:43;9.28;;;1.45;;
75548;SDS011;64133;56.002;37.208;2023-06-10T10:43:48;2.62;;;0.40;;
75548;SDS011;64133;56.002;37.208;2023-06-10T10:48:53;1.70;;;0.50;;
75548;SDS011;64133;56.002;37.208;2023-06-10T10:54:11;2.58;;;0.60;;
75548;SDS011;64133;56.002;37.208;2023-06-10T11:04:21;2.10;;;0.90;;
75548;SDS011;64133;56.002;37.208;2023-06-10T11:09:26;1.55;;;0.57;;
75548;SDS011;64133;56.002;37.208;2023-06-10T11:14:31;3.67;;;1.05;;
75548;SDS011;64133;56.002;37.208;2023-06-10T11:19:36;2.83;;;1.40;;
75548;SDS011;64133;56.002;37.208;2023-06-10T11:24:44;3.58;;;1.10;;
75548;SDS011;64133;56.002;37.208;2023-06-10T11:35:27;1.67;;;0.50;;
75548;SDS011;64133;56.002;37.208;2023-06-10T11:40:32;2.70;;;0.40;;
75548;SDS011;64133;56.002;37.208;2023-06-10T11:45:37;2.70;;;0.90;;
75548;SDS011;64133;56.002;37.208;2023-06-10T11:50:41;3.20;;;0.62;;
75548;SDS011;64133;56.002;37.208;2023-06-10T11:55:47;2.20;;;0.60;;
75548;SDS011;64133;56.002;37.208;2023-06-10T12:00:51;3.67;;;0.70;;
75548;SDS011;64133;56.002;37.208;2023-06-10T12:05:57;1.30;;;0.50;;
75548;SDS011;64133;56.002;37.208;2023-06-10T12:11:01;1.95;;;0.60;;
75548;SDS011;64133;56.002;37.208;2023-06-10T12:16:09;3.08;;;0.50;;
75548;SDS011;64133;56.002;37.208;2023-06-10T12:21:18;3.90;;;1.10;;
75548;SDS011;64133;56.002;37.208;2023-06-10T12:26:34;2.67;;;0.55;;
75548;SDS011;64133;56.002;37.208;2023-06-10T12:31:58;3.92;;;0.93;;
75548;SDS011;64133;56.002;37.208;2023-06-10T12:37:03;3.22;;;0.90;;
75548;SDS011;64133;56.002;37.208;2023-06-10T12:42:09;3.30;;;0.80;;
75548;SDS011;64133;56.002;37.208;2023-06-10T12:47:14;2.00;;;1.20;;
75548;SDS011;64133;56.002;37.208;2023-06-10T12:52:18;1.55;;;0.50;;
75548;SDS011;64133;56.002;37.208;2023-06-10T12:57:23;1.85;;;0.80;;
75548;SDS011;64133;56.002;37.208;2023-06-10T13:02:27;2.50;;;0.75;;
75548;SDS011;64133;56.002;37.208;2023-06-10T13:07:32;3.12;;;0.60;;
75548;SDS011;64133;56.002;37.208;2023-06-10T13:12:37;1.75;;;0.80;;
75548;SDS011;64133;56.002;37.208;2023-06-10T13:17:41;2.98;;;1.50;;
75548;SDS011;64133;56.002;37.208;2023-06-10T13:22:46;3.90;;;1.45;;
75548;SDS011;64133;56.002;37.208;2023-06-10T13:27:52;3.30;;;1.40;;
75548;SDS011;64133;56.002;37.208;2023-06-10T13:32:57;2.72;;;0.80;;
75548;SDS011;64133;56.002;37.208;2023-06-10T13:38:02;2.80;;;0.90;;
75548;SDS011;64133;56.002;37.208;2023-06-10T13:43:06;2.70;;;1.10;;
75548;SDS011;64133;56.002;37.208;2023-06-10T13:48:12;2.45;;;0.78;;
75548;SDS011;64133;56.002;37.208;2023-06-10T13:53:16;2.90;;;0.98;;
75548;SDS011;64133;56.002;37.208;2023-06-10T13:58:21;2.55;;;0.53;;
75548;SDS011;64133;56.002;37.208;2023-06-10T14:03:25;5.35;;;1.12;;
75548;SDS011;64133;56.002;37.208;2023-06-10T14:08:30;2.40;;;0.80;;
75548;SDS011;64133;56.002;37.208;2023-06-10T14:13:35;2.70;;;0.53;;
75548;SDS011;64133;56.002;37.208;2023-06-10T14:18:40;4.80;;;1.10;;
75548;SDS011;64133;56.002;37.208;2023-06-10T14:23:44;2.10;;;0.75;;
75548;SDS011;64133;56.002;37.208;2023-06-10T14:28:49;2.58;;;1.10;;
75548;SDS011;64133;56.002;37.208;2023-06-10T14:33:54;1.72;;;0.95;;
75548;SDS011;64133;56.002;37.208;2023-06-10T14:38:58;1.70;;;0.80;;
75548;SDS011;64133;56.002;37.208;2023-06-10T14:44:03;3.50;;;0.90;;
75548;SDS011;64133;56.002;37.208;2023-06-10T14:49:08;3.00;;;1.55;;
75548;SDS011;64133;56.002;37.208;2023-06-10T14:54:13;2.60;;;0.70;;
75548;SDS011;64133;56.002;37.208;2023-06-10T14:59:17;3.17;;;1.07;;
75548;SDS011;64133;56.002;37.208;2023-06-10T15:04:22;2.17;;;1.10;;
75548;SDS011;64133;56.002;37.208;2023-06-10T15:09:27;2.42;;;0.75;;
75548;SDS011;64133;56.002;37.208;2023-06-10T15:14:31;3.72;;;1.70;;
75548;SDS011;64133;56.002;37.208;2023-06-10T15:19:36;2.20;;;0.90;;
75548;SDS011;64133;56.002;37.208;2023-06-10T15:24:41;3.15;;;0.80;;
75548;SDS011;64133;56.002;37.208;2023-06-10T15:29:45;2.58;;;0.90;;
75548;SDS011;64133;56.002;37.208;2023-06-10T15:34:50;2.05;;;1.07;;
75548;SDS011;64133;56.002;37.208;2023-06-10T15:39:54;2.60;;;0.90;;
75548;SDS011;64133;56.002;37.208;2023-06-10T15:44:59;1.45;;;0.65;;
75548;SDS011;64133;56.002;37.208;2023-06-10T15:50:05;3.20;;;0.80;;
75548;SDS011;64133;56.002;37.208;2023-06-10T15:55:10;3.58;;;1.20;;
75548;SDS011;64133;56.002;37.208;2023-06-10T16:00:16;4.20;;;1.15;;
75548;SDS011;64133;56.002;37.208;2023-06-10T16:05:21;3.02;;;0.60;;
75548;SDS011;64133;56.002;37.208;2023-06-10T16:10:26;2.72;;;0.95;;
75548;SDS011;64133;56.002;37.208;2023-06-10T16:15:31;3.50;;;0.80;;
75548;SDS011;64133;56.002;37.208;2023-06-10T16:20:36;2.52;;;1.00;;
75548;SDS011;64133;56.002;37.208;2023-06-10T16:25:40;3.60;;;0.90;;
75548;SDS011;64133;56.002;37.208;2023-06-10T16:30:45;5.08;;;1.40;;
75548;SDS011;64133;56.002;37.208;2023-06-10T16:35:50;2.47;;;1.00;;
75548;SDS011;64133;56.002;37.208;2023-06-10T16:40:54;2.17;;;0.60;;
75548;SDS011;64133;56.002;37.208;2023-06-10T16:46:00;2.92;;;0.70;;
75548;SDS011;64133;56.002;37.208;2023-06-10T16:51:05;4.75;;;1.10;;
75548;SDS011;64133;56.002;37.208;2023-06-10T16:56:12;3.72;;;1.42;;
75548;SDS011;64133;56.002;37.208;2023-06-10T17:01:17;2.30;;;1.10;;
75548;SDS011;64133;56.002;37.208;2023-06-10T17:06:21;3.42;;;1.60;;
75548;SDS011;64133;56.002;37.208;2023-06-10T17:11:26;2.62;;;0.70;;
75548;SDS011;64133;56.002;37.208;2023-06-10T17:16:32;2.95;;;1.10;;
75548;SDS011;64133;56.002;37.208;2023-06-10T17:21:37;4.37;;;1.27;;
75548;SDS011;64133;56.002;37.208;2023-06-10T17:26:42;2.02;;;1.20;;
75548;SDS011;64133;56.002;37.208;2023-06-10T17:31:47;2.02;;;0.65;;
75548;SDS011;64133;56.002;37.208;2023-06-10T17:36:51;4.37;;;0.80;;
75548;SDS011;64133;56.002;37.208;2023-06-10T17:41:56;1.90;;;0.62;;
75548;SDS011;64133;56.002;37.208;2023-06-10T17:47:01;3.62;;;1.00;;
75548;SDS011;64133;56.002;37.208;2023-06-10T17:52:10;2.85;;;1.35;;
75548;SDS011;64133;56.002;37.208;2023-06-10T17:57:14;5.05;;;1.80;;
75548;SDS011;64133;56.002;37.208;2023-06-10T18:02:19;3.08;;;1.40;;
75548;SDS011;64133;56.002;37.208;2023-06-10T18:07:24;3.35;;;1.40;;
75548;SDS011;64133;56.002;37.208;2023-06-10T18:12:29;4.53;;;1.15;;
75548;SDS011;64133;56.002;37.208;2023-06-10T18:17:33;3.55;;;1.37;;
75548;SDS011;64133;56.002;37.208;2023-06-10T18:22:38;4.00;;;1.32;;
75548;SDS011;64133;56.002;37.208;2023-06-10T18:27:42;3.80;;;1.80;;
75548;SDS011;64133;56.002;37.208;2023-06-10T18:32:47;4.60;;;1.47;;
75548;SDS011;64133;56.002;37.208;2023-06-10T18:37:52;3.47;;;1.85;;
75548;SDS011;64133;56.002;37.208;2023-06-10T18:48:04;4.55;;;1.50;;
75548;SDS011;64133;56.002;37.208;2023-06-10T18:53:09;2.75;;;1.92;;
75548;SDS011;64133;56.002;37.208;2023-06-10T18:58:13;5.83;;;2.00;;
75548;SDS011;64133;56.002;37.208;2023-06-10T19:03:18;2.90;;;1.40;;
75548;SDS011;64133;56.002;37.208;2023-06-10T19:08:23;4.35;;;1.80;;
75548;SDS011;64133;56.002;37.208;2023-06-10T19:13:28;4.72;;;2.22;;
75548;SDS011;64133;56.002;37.208;2023-06-10T19:18:32;5.35;;;2.00;;
75548;SDS011;64133;56.002;37.208;2023-06-10T19:23:37;5.10;;;2.42;;
75548;SDS011;64133;56.002;37.208;2023-06-10T19:28:42;6.87;;;3.00;;
75548;SDS011;64133;56.002;37.208;2023-06-10T19:33:46;2.85;;;1.57;;
75548;SDS011;64133;56.002;37.208;2023-06-10T19:38:51;4.25;;;2.00;;
75548;SDS011;64133;56.002;37.208;2023-06-10T19:43:56;4.22;;;2.25;;
75548;SDS011;64133;56.002;37.208;2023-06-10T19:49:00;3.52;;;1.87;;
75548;SDS011;64133;56.002;37.208;2023-06-10T19:54:07;3.90;;;1.92;;
75548;SDS011;64133;56.002;37.208;2023-06-10T19:59:12;3.08;;;1.45;;
75548;SDS011;64133;56.002;37.208;2023-06-10T20:04:17;20.45;;;6.80;;
75548;SDS011;64133;56.002;37.208;2023-06-10T20:09:21;10.23;;;2.60;;
75548;SDS011;64133;56.002;37.208;2023-06-10T20:14:26;4.17;;;1.82;;
75548;SDS011;64133;56.002;37.208;2023-06-10T20:19:30;5.03;;;1.95;;
75548;SDS011;64133;56.002;37.208;2023-06-10T20:24:35;4.60;;;2.65;;
75548;SDS011;64133;56.002;37.208;2023-06-10T20:29:40;4.33;;;1.92;;
75548;SDS011;64133;56.002;37.208;2023-06-10T20:34:44;3.17;;;1.75;;
75548;SDS011;64133;56.002;37.208;2023-06-10T20:39:49;4.25;;;2.08;;
75548;SDS011;64133;56.002;37.208;2023-06-10T20:44:54;5.72;;;2.45;;
75548;SDS011;64133;56.002;37.208;2023-06-10T20:49:58;3.45;;;2.00;;
75548;SDS011;64133;56.002;37.208;2023-06-10T20:55:04;3.80;;;2.05;;
75548;SDS011;64133;56.002;37.208;2023-06-10T21:00:11;7.25;;;2.77;;
75548;SDS011;64133;56.002;37.208;2023-06-10T21:05:16;4.53;;;2.77;;
75548;SDS011;64133;56.002;37.208;2023-06-10T21:10:24;4.72;;;2.62;;
75548;SDS011;64133;56.002;37.208;2023-06-10T21:15:29;6.20;;;2.65;;
75548;SDS011;64133;56.002;37.208;2023-06-10T21:20:34;3.92;;;2.02;;
75548;SDS011;64133;56.002;37.208;2023-06-10T21:25:39;5.40;;;2.90;;
75548;SDS011;64133;56.002;37.208;2023-06-10T21:30:44;4.28;;;2.65;;
75548;SDS011;64133;56.002;37.208;2023-06-10T21:35:48;5.08;;;2.25;;
75548;SDS011;64133;56.002;37.208;2023-06-10T21:40:53;4.08;;;2.40;;
75548;SDS011;64133;56.002;37.208;2023-06-10T21:46:07;5.08;;;2.20;;
75548;SDS011;64133;56.002;37.208;2023-06-10T21:51:11;5.65;;;2.50;;
75548;SDS011;64133;56.002;37.208;2023-06-10T21:56:16;4.17;;;2.33;;
75548;SDS011;64133;56.002;37.208;2023-06-10T22:01:21;4.97;;;2.30;;
75548;SDS011;64133;56.002;37.208;2023-06-10T22:06:26;4.22;;;2.22;;
75548;SDS011;64133;56.002;37.208;2023-06-10T22:11:30;3.90;;;2.05;;
75548;SDS011;64133;56.002;37.208;2023-06-10T22:16:35;3.60;;;2.10;;
75548;SDS011;64133;56.002;37.208;2023-06-10T22:21:39;4.28;;;2.40;;
75548;SDS011;64133;56.002;37.208;2023-06-10T22:26:44;5.00;;;2.50;;
75548;SDS011;64133;56.002;37.208;2023-06-10T22:31:49;6.40;;;2.70;;
75548;SDS011;64133;56.002;37.208;2023-06-10T22:36:53;4.22;;;2.02;;
75548;SDS011;64133;56.002;37.208;2023-06-10T22:41:58;4.03;;;2.10;;
75548;SDS011;64133;56.002;37.208;2023-06-10T22:47:03;4.25;;;2.33;;
75548;SDS011;64133;56.002;37.208;2023-06-10T22:52:09;4.75;;;2.15;;
75548;SDS011;64133;56.002;37.208;2023-06-10T22:57:13;4.87;;;2.22;;
75548;SDS011;64133;56.002;37.208;2023-06-10T23:02:18;6.65;;;2.20;;
75548;SDS011;64133;56.002;37.208;2023-06-10T23:07:23;3.80;;;2.55;;
75548;SDS011;64133;56.002;37.208;2023-06-10T23:12:27;3.92;;;2.33;;
75548;SDS011;64133;56.002;37.208;2023-06-10T23:17:33;4.65;;;2.45;;
75548;SDS011;64133;56.002;37.208;2023-06-10T23:22:37;4.92;;;2.20;;
75548;SDS011;64133;56.002;37.208;2023-06-10T23:27:42;4.22;;;1.90;;
75548;SDS011;64133;56.002;37.208;2023-06-10T23:32:46;5.40;;;2.83;;
75548;SDS011;64133;56.002;37.208;2023-06-10T23:37:51;4.00;;;2.47;;
75548;SDS011;64133;56.002;37.208;2023-06-10T23:42:55;5.30;;;2.15;;
75548;SDS011;64133;56.002;37.208;2023-06-10T23:48:00;3.95;;;2.22;;
75548;SDS011;64133;56.002;37.208;2023-06-10T23:53:05;3.70;;;2.20;;
75548;SDS011;64133;56.002;37.208;2023-06-10T23:58:10;3.80;;;2.40;;
